x

Buoy F01 - West Penobscot Bay (44033) Wave Buoy

6:04pm - Tue 16th Sep 2014 All times are EDT. -4 hours from GMT.

  • Sig Wave height 1.0ft
  • Peak Period 6s
  • Wind
    7mph, 9mph gusts
  • Sea Temp 59°f
  • Air Temp 58°f
  • Sea Pressure 1012.9mb
  • Buoy F01 - West Penobscot Bay
  • Buoy F01 - West Penobscot Bay

More Historic Weather Station data

Upgrade to MSW Pro to gain access to the past 30 days of data for over 8000 Wavebouys and Weather Stations around the globe.

Join Pro

Comparision Forecast

View Surf forecast
   
Tue 09/16 6:04pm 1ft 6s 7 9 mph 1012.9mb 59f 58f
5:04pm 1ft 8s 9
mph
1012.9mb 58f 58f
4:04pm 1ft 4s 7 9 mph 1013.2mb 59f 58f
3:04pm 1ft 3s 9 11 mph 1013.4mb 59f 57f
2:04pm 1ft 4s 9 11 mph 1013.8mb 59f 57f
1:04pm 0.7ft  -  9 11 mph 1014.8mb 59f 57f
12:04pm 1ft 8s 7
mph
1015mb 59f 58f
11:04am 1ft 8s 4 7 mph 1015.6mb 58f 56f
10:04am 1ft 8s 9 11 mph 1016.2mb 58f 56f
9:04am 0.7ft  -  9 11 mph 1016.5mb 58f 57f
8:04am 1ft 6s 9 11 mph 1016.4mb 58f 57f
7:04am 1.3ft 8s 11 16 mph 1016.3mb 58f 58f
6:04am 1ft 8s 11 13 mph 1016.1mb 58f 58f
5:04am 0.7ft  -  9 11 mph 1015.7mb 58f 58f
4:04am 0.7ft  -  11 13 mph 1016.2mb 58f 58f
3:04am 0.7ft  -  9 11 mph 1016.9mb 58f 58f
2:04am 0.7ft  -  9 11 mph 1017.9mb 58f 58f
1:04am 0.7ft  -  7 9 mph 1017.8mb 58f 57f
12:04am 0.7ft  -  7 9 mph 1018.1mb 58f 57f
Mon 09/15 11:04pm 0.7ft  -  9 11 mph 1018.6mb 58f 57f
10:04pm 0.7ft  -  9 11 mph 1018.6mb 58f 56f
9:04pm 0.7ft  -  9
mph
1019mb 58f 56f
8:04pm 1ft 3s 11 13 mph 1018.8mb 58f 56f
7:04pm 1ft 4s 11 13 mph 1018.3mb 58f 56f
6:04pm 1ft 3s 11
mph
1018.6mb 58f 57f
5:04pm 1ft 3s 11 16 mph 1018.5mb 58f 56f
4:04pm 1ft 3s 11 13 mph 1019mb 58f 56f
3:04pm 0.7ft  -  7 11 mph 1019.1mb 58f 56f
2:04pm 0.7ft  -  9 11 mph 1019.4mb 58f 54f
1:04pm 0.7ft  -  7 9 mph 1020.4mb 58f 55f
12:04pm 1ft 6s 2 4 mph 1020.8mb 58f 54f
11:04am 1ft 6s 7 9 mph 1021.6mb 58f 53f
10:04am 1ft 6s 7 9 mph 1022.1mb 58f 53f
9:04am 1ft 8s 11 16 mph 1022.4mb 57f 52f
8:04am 1ft 8s 9 11 mph 1022.6mb 57f 51f
7:04am 1ft 8s 7 9 mph 1022.6mb 57f 51f
6:04am 1ft 8s 7 9 mph 1022.5mb 57f 51f
5:04am 0.7ft  -  7 9 mph 1021.8mb 57f 52f
4:04am 1ft 8s 9 11 mph 1021.5mb 57f 52f
3:04am 0.7ft  -  11
mph
1021.6mb 57f 52f
2:04am 1ft 3s 9 11 mph 1021.6mb 57f 52f
1:04am 1.3ft 3s 13 16 mph 1021.9mb 57f 52f
12:04am 1.3ft 3s 16 18 mph 1021.8mb 57f 53f
Sun 09/14 11:04pm 1.3ft 6s 13 16 mph 1022.3mb 57f 53f
10:04pm 1.3ft 6s 13 16 mph 1022mb 57f 55f
9:04pm 1.6ft 6s 16 18 mph 1022.1mb 57f 55f
8:04pm 1.6ft 3s 18 20 mph 1021.7mb 57f 56f
7:04pm 1.3ft 6s 16 18 mph 1021.2mb 57f 58f
6:04pm 1ft 6s 11 13 mph 1020.5mb 58f 59f
5:04pm 1ft 6s 13 16 mph 1019.8mb 58f 60f
4:04pm 1ft 6s 11 16 mph 1019.2mb 58f 60f
3:04pm 1ft 6s 9 13 mph 1019.2mb 57f 59f
2:04pm 1.3ft 6s 11 16 mph 1019.4mb 58f 58f
1:04pm 1.6ft 3s 13 18 mph 1019.6mb 58f 57f
12:04pm 1.6ft 3s 16 20 mph 1019.7mb 58f 56f
11:04am 2ft 3s 16 20 mph 1020.4mb 58f 55f
10:04am 1.6ft 6s 18 22 mph 1020.5mb 58f 54f
9:04am 1.6ft 6s 16 20 mph 1020.5mb 58f 53f
8:04am 1.3ft 2s 18 22 mph 1020.1mb 58f 54f
7:04am 2ft 6s 18 22 mph 1019.3mb 57f 54f
6:04am 2ft 6s 22 27 mph 1018.3mb 58f 56f
5:04am 2ft 6s 16 18 mph 1017.2mb 58f 57f
4:04am 2.5ft 6s 7 9 mph 1016.9mb 58f 58f
3:04am 2.5ft 6s 7 9 mph 1017mb 58f 59f
2:04am 2.5ft 6s 2 4 mph 1016.8mb 58f 58f
1:04am 2ft 6s 2 4 mph 1017mb 58f 58f
12:04am 2.5ft 5s 2
mph
1017.8mb 58f 58f
Sat 09/13 11:04pm 1.6ft 5s 7 9 mph 1018.5mb 58f 58f
10:04pm 1.3ft 3s 9 11 mph 1018.9mb 58f 58f
9:04pm 1.3ft 4s 11 16 mph 1019.5mb 58f 58f
8:04pm 1ft 5s 18 20 mph 1019.9mb 58f 58f
7:04pm 1ft 8s 7
mph
1022mb 58f 58f
6:04pm 1ft 5s 9
mph
1021.8mb 58f 58f
5:04pm 1ft 5s 9 11 mph 1021.8mb 58f 57f
4:04pm 1ft 8s 9
mph
1022.3mb 59f 57f
3:04pm 1ft 6s 9 11 mph 1022.6mb 58f 57f
2:04pm 1.3ft 3s 7
mph
1023.6mb 58f 57f
1:04pm 1ft 3s 9 11 mph 1024mb 58f 57f
12:04pm 1ft 2s 7 9 mph 1024.7mb 58f 57f
11:04am 1ft 3s 9 11 mph 1025.2mb 58f 56f
10:04am 1.3ft 3s 11 13 mph 1026.1mb 58f 54f
9:04am 1.3ft 3s 16 18 mph 1026.1mb 58f 53f
8:04am 1.3ft 3s 16 18 mph 1026mb 58f 53f
7:04am 1.3ft 3s 16 18 mph 1025.6mb 58f 53f
6:04am 1.6ft 3s 16 18 mph 1025.1mb 58f 53f
5:04am 1.6ft 3s 16 18 mph 1024.5mb 57f 53f
4:04am 1.6ft 3s 18 20 mph 1024.3mb 58f 54f
3:04am 2ft 3s 18 22 mph 1024.2mb 56f 55f
2:04am 1.6ft 3s 16 18 mph 1023.9mb 57f 55f
1:04am 1.6ft 3s 16 20 mph 1023.4mb 57f 56f